Portada
METAR-TAF:

METAR-TAF

Aeroports :

Cayo Largo del Sur, Cuba

latitud: 21-37N, longitud: 081-33W, altitud: 2 m

Observació

L'informe es va fer fa 44 minuts, a les 05:05 UTC
Temperatura
Pressió 1013 hPa

METAR: MUCL 220505Z AUTO /////KT XX/XX Q1013

Hora: 01:49 (05:49 UTC)

Pronòstic

L'informe es va fer fa 12 hores i 49 minuts, a les 17:00 UTC
Pronòstic vàlid del 21 a les 18 UTC al 22 a les 06 UTC
Vent 10 kt del Est
Visibilitat: 9000 m
Núvols disperses a una alçada de 2000 ft
Evolucionant progressivament
l' 22 a les 01 UTC al 22 a les 03 UTC
Vent 3 kt amb direcció variable

TAF: MUCL 211700Z 2118/2206 09010KT 9000 SCT020 BECMG 2201/2203 VRB03KT

Observacions i pronòstics meteorològics de més de 4000 aeroports (METAR i TAF).

Les estacions disponibles són els punts grocs i vermells al mapa.

Posi el ratolí al punt desitjat per veure el nom de l'estació.

Feu clic per veure les observacions i els pronòstics meteorològics.

Per canviar el mapa: feu clic els botons verds amb una creu de color negre per apropar; al botó verd amb un guió per allunyar la imatge; o en les fletxes verdes per a mapes adjacents.


METAR-TAF: